Time;durP1;ratioP1;P1;durP2;ratioP2;P2;SDS_P1;SDS_P2;PMS_P1;PMS_P2;Temp;Humidity;BMP_temperature;BMP_pressure;BME280_temperature;BME280_humidity;BME280_pressure;Samples;Min_cycle;Max_cycle;Signal;HPM_P1;HPM_P2
2023/04/08 00:00:36;;;;;;;0.57;0.57;;;;;;;;;;5056455;28;20604;-85
2023/04/08 00:03:02;;;;;;;0.60;0.60;;;;;;;;;;5056187;28;20223;-84
2023/04/08 00:05:29;;;;;;;0.60;0.60;;;;;;;;;;5056821;28;20203;-86
2023/04/08 00:07:55;;;;;;;0.50;0.50;;;;;;;;;;5057424;28;20266;-86
2023/04/08 00:10:21;;;;;;;0.53;0.53;;;;;;;;;;5058435;28;20191;-85
2023/04/08 00:12:47;;;;;;;0.60;0.60;;;;;;;;;;5060318;28;20271;-85
2023/04/08 00:15:13;;;;;;;0.50;0.50;;;;;;;;;;5061380;28;20171;-85
2023/04/08 00:17:41;;;;;;;0.60;0.60;;;;;;;;;;5061579;28;20269;-87
2023/04/08 00:20:07;;;;;;;0.57;0.57;;;;;;;;;;5060698;28;20190;-84
2023/04/08 00:22:33;;;;;;;0.60;0.60;;;;;;;;;;5060371;28;20302;-85
2023/04/08 00:25:00;;;;;;;0.70;0.70;;;;;;;;;;5060942;28;20235;-85
2023/04/08 00:27:26;;;;;;;0.67;0.67;;;;;;;;;;5060838;28;20178;-86
2023/04/08 00:29:52;;;;;;;0.60;0.60;;;;;;;;;;5061260;28;20179;-86
2023/04/08 00:32:18;;;;;;;0.60;0.60;;;;;;;;;;5061287;28;20175;-86
2023/04/08 00:34:44;;;;;;;0.70;0.70;;;;;;;;;;5061354;28;20195;-85
2023/04/08 00:37:10;;;;;;;0.70;0.70;;;;;;;;;;5060506;28;20634;-86
2023/04/08 00:39:37;;;;;;;0.70;0.70;;;;;;;;;;5060594;28;20183;-85
2023/04/08 00:42:03;;;;;;;0.70;0.70;;;;;;;;;;5060561;28;20598;-84
2023/04/08 00:44:29;;;;;;;0.70;0.70;;;;;;;;;;5060853;28;20199;-85
2023/04/08 00:46:55;;;;;;;0.50;0.50;;;;;;;;;;5061128;28;20244;-85
2023/04/08 00:49:21;;;;;;;0.67;0.67;;;;;;;;;;5060407;28;20175;-86
2023/04/08 00:51:47;;;;;;;0.60;0.60;;;;;;;;;;5060898;28;20179;-86
2023/04/08 00:54:13;;;;;;;0.53;0.53;;;;;;;;;;5060178;28;20198;-85
2023/04/08 00:56:39;;;;;;;0.50;0.50;;;;;;;;;;5061109;28;20250;-86
2023/04/08 00:59:05;;;;;;;0.67;0.67;;;;;;;;;;5061583;28;20178;-85
2023/04/08 01:01:40;;;;;;;0.70;0.70;;;;;;;;;;5061206;28;20179;-85
2023/04/08 01:04:09;;;;;;;0.60;0.60;;;;;;;;;;5065272;28;20282;-84
2023/04/08 01:06:41;;;;;;;0.70;0.70;;;;;;;;;;5067655;28;20175;-84
2023/04/08 01:09:08;;;;;;;0.60;0.60;;;;;;;;;;5068127;28;20190;-83
2023/04/08 01:11:35;;;;;;;0.70;0.70;;;;;;;;;;5067601;28;20181;-85
2023/04/08 01:14:05;;;;;;;0.60;0.60;;;;;;;;;;5067378;28;20199;-84
2023/04/08 01:16:31;;;;;;;0.60;0.60;;;;;;;;;;5067501;28;20243;-84
2023/04/08 01:18:57;;;;;;;0.53;0.53;;;;;;;;;;5068356;28;20195;-84
2023/04/08 01:21:24;;;;;;;0.60;0.60;;;;;;;;;;5066583;28;20203;-84
2023/04/08 01:24:04;;;;;;;0.57;0.57;;;;;;;;;;5068127;28;20250;-84
2023/04/08 01:26:30;;;;;;;0.60;0.60;;;;;;;;;;5067287;28;20239;-84
2023/04/08 01:28:57;;;;;;;0.67;0.67;;;;;;;;;;5066878;28;20176;-83
2023/04/08 01:31:24;;;;;;;0.60;0.60;;;;;;;;;;5066035;28;20175;-86
2023/04/08 01:33:51;;;;;;;0.50;0.50;;;;;;;;;;5060052;28;20584;-86
2023/04/08 01:36:17;;;;;;;0.60;0.60;;;;;;;;;;5059701;28;20179;-85
2023/04/08 01:38:44;;;;;;;0.60;0.60;;;;;;;;;;5059779;28;20367;-86
2023/04/08 01:41:10;;;;;;;0.70;0.70;;;;;;;;;;5060813;28;20244;-85
2023/04/08 01:43:41;;;;;;;0.60;0.60;;;;;;;;;;5060001;28;20262;-85
2023/04/08 01:46:07;;;;;;;0.60;0.60;;;;;;;;;;5060845;28;20185;-86
2023/04/08 01:48:34;;;;;;;0.60;0.60;;;;;;;;;;5060325;28;20186;-85
2023/04/08 01:51:00;;;;;;;0.60;0.60;;;;;;;;;;5060836;28;20175;-86
2023/04/08 01:53:26;;;;;;;0.53;0.53;;;;;;;;;;5059510;28;20286;-85
2023/04/08 01:55:56;;;;;;;0.57;0.57;;;;;;;;;;5061194;28;20275;-85
2023/04/08 01:58:24;;;;;;;0.60;0.60;;;;;;;;;;5060396;28;20171;-86
2023/04/08 02:00:51;;;;;;;0.50;0.50;;;;;;;;;;5060603;28;20198;-86
2023/04/08 02:03:18;;;;;;;0.60;0.60;;;;;;;;;;5064997;28;20229;-86
2023/04/08 02:05:44;;;;;;;0.60;0.60;;;;;;;;;;5066109;28;20176;-85
2023/04/08 02:08:10;;;;;;;0.60;0.60;;;;;;;;;;5066855;28;20204;-86
2023/04/08 02:10:36;;;;;;;0.63;0.63;;;;;;;;;;5065711;28;20206;-86
2023/04/08 02:13:02;;;;;;;0.63;0.63;;;;;;;;;;5065781;28;20205;-85
2023/04/08 02:15:28;;;;;;;0.70;0.70;;;;;;;;;;5067393;28;20183;-86
2023/04/08 02:17:56;;;;;;;0.67;0.67;;;;;;;;;;5067379;28;20171;-86
2023/04/08 02:20:37;;;;;;;0.77;0.77;;;;;;;;;;5067771;28;20190;-85
2023/04/08 02:23:07;;;;;;;0.67;0.67;;;;;;;;;;5065864;28;20226;-85
2023/04/08 02:25:34;;;;;;;0.70;0.70;;;;;;;;;;5068434;28;20739;-84
2023/04/08 02:28:01;;;;;;;0.60;0.60;;;;;;;;;;5070091;28;20167;-84
2023/04/08 02:30:27;;;;;;;0.57;0.57;;;;;;;;;;5070032;28;20205;-84
2023/04/08 02:32:54;;;;;;;0.60;0.60;;;;;;;;;;5069418;28;20193;-85
2023/04/08 02:35:20;;;;;;;0.67;0.67;;;;;;;;;;5070307;28;20183;-84
2023/04/08 02:37:49;;;;;;;0.60;0.60;;;;;;;;;;5070465;28;20181;-84
2023/04/08 02:40:28;;;;;;;0.60;0.60;;;;;;;;;;5070553;28;20186;-84
2023/04/08 02:42:55;;;;;;;0.60;0.60;;;;;;;;;;5068598;28;20230;-83
2023/04/08 02:45:21;;;;;;;0.60;0.60;;;;;;;;;;5069678;28;20175;-83
2023/04/08 02:47:47;;;;;;;0.53;0.53;;;;;;;;;;5069178;28;20172;-82
2023/04/08 02:50:13;;;;;;;0.60;0.60;;;;;;;;;;5070166;28;20182;-83
2023/04/08 02:52:39;;;;;;;0.50;0.50;;;;;;;;;;5069107;28;20179;-84
2023/04/08 02:55:08;;;;;;;0.63;0.63;;;;;;;;;;5069625;28;20247;-83
2023/04/08 02:57:34;;;;;;;0.70;0.70;;;;;;;;;;5076425;28;20197;-82
2023/04/08 03:00:00;;;;;;;0.67;0.67;;;;;;;;;;5076757;28;20202;-82
2023/04/08 03:02:26;;;;;;;0.50;0.50;;;;;;;;;;5075880;28;20213;-82
2023/04/08 03:04:52;;;;;;;0.47;0.47;;;;;;;;;;5076303;28;20187;-83
2023/04/08 03:07:18;;;;;;;0.60;0.60;;;;;;;;;;5063380;28;20229;-84
2023/04/08 03:09:44;;;;;;;0.60;0.60;;;;;;;;;;5057300;28;20174;-83
2023/04/08 03:12:10;;;;;;;0.53;0.53;;;;;;;;;;5060015;28;20846;-84
2023/04/08 03:14:36;;;;;;;0.53;0.53;;;;;;;;;;5060341;28;20616;-84
2023/04/08 03:17:02;;;;;;;0.60;0.60;;;;;;;;;;5059905;28;20178;-84
2023/04/08 03:19:28;;;;;;;0.60;0.60;;;;;;;;;;5058471;28;20509;-84
2023/04/08 03:21:54;;;;;;;0.50;0.50;;;;;;;;;;5058285;28;20179;-84
2023/04/08 03:24:20;;;;;;;0.70;0.70;;;;;;;;;;5062243;28;20202;-84
2023/04/08 03:26:46;;;;;;;0.60;0.60;;;;;;;;;;5062287;28;20190;-84
2023/04/08 03:29:12;;;;;;;0.63;0.63;;;;;;;;;;5063263;28;20182;-83
2023/04/08 03:31:38;;;;;;;0.60;0.60;;;;;;;;;;5063972;28;20174;-83
2023/04/08 03:34:04;;;;;;;0.60;0.60;;;;;;;;;;5061699;28;20195;-84
2023/04/08 03:36:30;;;;;;;0.60;0.60;;;;;;;;;;5062582;28;20187;-84
2023/04/08 03:38:56;;;;;;;0.70;0.70;;;;;;;;;;5062964;28;20187;-83
2023/04/08 03:41:22;;;;;;;0.60;0.60;;;;;;;;;;5061238;28;20179;-84
2023/04/08 03:43:48;;;;;;;0.60;0.60;;;;;;;;;;5059212;28;20275;-84
2023/04/08 03:46:14;;;;;;;0.60;0.60;;;;;;;;;;5064107;28;20175;-84
2023/04/08 03:48:40;;;;;;;0.60;0.60;;;;;;;;;;5063018;28;20179;-83
2023/04/08 03:51:06;;;;;;;0.57;0.57;;;;;;;;;;5062606;28;20171;-84
2023/04/08 03:53:32;;;;;;;0.60;0.60;;;;;;;;;;5062481;28;20197;-83
2023/04/08 03:55:58;;;;;;;0.57;0.57;;;;;;;;;;5061513;28;20175;-84
2023/04/08 03:58:24;;;;;;;0.50;0.50;;;;;;;;;;5061418;28;20240;-84
2023/04/08 04:00:50;;;;;;;0.60;0.60;;;;;;;;;;5061142;28;20225;-84
2023/04/08 04:03:16;;;;;;;0.60;0.60;;;;;;;;;;5061451;28;20215;-84
2023/04/08 04:05:42;;;;;;;0.67;0.67;;;;;;;;;;5061473;28;20239;-83
2023/04/08 04:08:08;;;;;;;0.60;0.60;;;;;;;;;;5061207;28;20214;-84
2023/04/08 04:10:34;;;;;;;0.50;0.50;;;;;;;;;;5060905;28;20182;-83
2023/04/08 04:13:01;;;;;;;0.60;0.60;;;;;;;;;;5060712;28;20287;-84
2023/04/08 04:15:27;;;;;;;0.60;0.60;;;;;;;;;;5061055;28;20171;-83
2023/04/08 04:17:53;;;;;;;0.70;0.70;;;;;;;;;;5061239;28;20179;-83
2023/04/08 04:20:19;;;;;;;0.60;0.60;;;;;;;;;;5061912;28;20198;-83
2023/04/08 04:22:45;;;;;;;0.60;0.60;;;;;;;;;;5059724;28;20211;-83
2023/04/08 04:25:11;;;;;;;0.60;0.60;;;;;;;;;;5060606;28;20220;-84
2023/04/08 04:27:37;;;;;;;0.50;0.50;;;;;;;;;;5060921;28;20591;-83
2023/04/08 04:30:03;;;;;;;0.50;0.50;;;;;;;;;;5060714;28;20261;-84
2023/04/08 04:32:29;;;;;;;0.70;0.70;;;;;;;;;;5060426;28;20179;-84
2023/04/08 04:34:55;;;;;;;0.50;0.50;;;;;;;;;;5059795;28;20212;-83
2023/04/08 04:37:21;;;;;;;0.70;0.70;;;;;;;;;;5058957;28;20183;-82
2023/04/08 04:39:48;;;;;;;0.60;0.60;;;;;;;;;;5058149;28;20224;-84
2023/04/08 04:42:14;;;;;;;0.50;0.50;;;;;;;;;;5059307;28;20217;-85
2023/04/08 04:44:40;;;;;;;0.60;0.60;;;;;;;;;;5061176;28;20741;-83
2023/04/08 04:47:06;;;;;;;0.50;0.50;;;;;;;;;;5062723;28;20191;-84
2023/04/08 04:49:32;;;;;;;0.57;0.57;;;;;;;;;;5063201;28;20179;-83
2023/04/08 04:51:58;;;;;;;0.70;0.70;;;;;;;;;;5061923;28;20175;-84
2023/04/08 04:54:24;;;;;;;0.70;0.70;;;;;;;;;;5061694;28;20538;-84
2023/04/08 04:56:50;;;;;;;0.70;0.70;;;;;;;;;;5060725;28;20206;-85
2023/04/08 04:59:16;;;;;;;0.60;0.60;;;;;;;;;;5060721;28;20171;-84
2023/04/08 05:01:42;;;;;;;0.70;0.70;;;;;;;;;;5060403;28;20215;-84
2023/04/08 05:04:08;;;;;;;0.60;0.60;;;;;;;;;;5060056;28;20222;-84
2023/04/08 05:06:34;;;;;;;0.60;0.60;;;;;;;;;;5061685;28;20225;-82
2023/04/08 05:09:00;;;;;;;0.60;0.60;;;;;;;;;;5065102;28;20185;-81
2023/04/08 05:11:26;;;;;;;0.70;0.70;;;;;;;;;;5065832;28;20258;-82
2023/04/08 05:13:52;;;;;;;0.60;0.60;;;;;;;;;;5068356;28;20205;-83
2023/04/08 05:16:18;;;;;;;0.60;0.60;;;;;;;;;;5068892;28;20167;-82
2023/04/08 05:18:44;;;;;;;0.60;0.60;;;;;;;;;;5070116;28;20183;-82
2023/04/08 05:21:10;;;;;;;0.60;0.60;;;;;;;;;;5070319;28;20170;-83
2023/04/08 05:23:36;;;;;;;0.70;0.70;;;;;;;;;;5069855;28;20219;-82
2023/04/08 05:26:02;;;;;;;0.70;0.70;;;;;;;;;;5070015;28;20175;-82
2023/04/08 05:28:28;;;;;;;0.70;0.70;;;;;;;;;;5070750;28;20171;-83
2023/04/08 05:30:54;;;;;;;0.60;0.60;;;;;;;;;;5080053;28;20167;-79
2023/04/08 05:33:20;;;;;;;0.50;0.50;;;;;;;;;;5084793;28;20237;-79
2023/04/08 05:35:46;;;;;;;0.70;0.70;;;;;;;;;;5078123;28;20160;-80
2023/04/08 05:38:12;;;;;;;0.70;0.70;;;;;;;;;;5072101;28;20265;-80
2023/04/08 05:40:38;;;;;;;0.60;0.60;;;;;;;;;;5072397;28;20167;-82
2023/04/08 05:43:04;;;;;;;0.60;0.60;;;;;;;;;;5069854;28;20230;-81
2023/04/08 05:45:30;;;;;;;0.60;0.60;;;;;;;;;;5072392;28;20183;-81
2023/04/08 05:47:56;;;;;;;0.80;0.80;;;;;;;;;;5070243;28;20175;-82
2023/04/08 05:50:22;;;;;;;0.70;0.70;;;;;;;;;;5080848;28;20204;-81
2023/04/08 05:52:48;;;;;;;0.53;0.53;;;;;;;;;;5081400;28;20230;-80
2023/04/08 05:55:14;;;;;;;0.50;0.50;;;;;;;;;;5082353;28;20179;-80
2023/04/08 05:57:40;;;;;;;0.67;0.67;;;;;;;;;;5082074;28;20261;-80
2023/04/08 06:00:07;;;;;;;0.63;0.63;;;;;;;;;;5078767;28;20187;-78
2023/04/08 06:02:34;;;;;;;0.70;0.70;;;;;;;;;;5076846;28;20218;-80
2023/04/08 06:05:00;;;;;;;0.50;0.50;;;;;;;;;;5074918;28;20190;-78
2023/04/08 06:07:26;;;;;;;0.60;0.60;;;;;;;;;;5067932;28;20175;-79
2023/04/08 06:09:52;;;;;;;0.60;0.60;;;;;;;;;;5062553;28;20270;-78
2023/04/08 06:12:18;;;;;;;0.60;0.60;;;;;;;;;;5057949;28;20180;-78
2023/04/08 06:14:44;;;;;;;0.60;0.60;;;;;;;;;;5066066;28;20286;-78
2023/04/08 06:17:10;;;;;;;0.80;0.80;;;;;;;;;;5058388;28;20179;-79
2023/04/08 06:19:36;;;;;;;0.60;0.60;;;;;;;;;;5064768;28;20183;-79
2023/04/08 06:22:02;;;;;;;0.50;0.50;;;;;;;;;;5069967;28;20265;-79
2023/04/08 06:24:29;;;;;;;0.50;0.50;;;;;;;;;;5073427;28;20237;-79
2023/04/08 06:26:55;;;;;;;0.60;0.60;;;;;;;;;;5061090;28;20258;-79
2023/04/08 06:29:22;;;;;;;0.60;0.60;;;;;;;;;;5058468;28;20175;-79
2023/04/08 06:31:48;;;;;;;0.60;0.60;;;;;;;;;;5056691;28;20183;-78
2023/04/08 06:34:14;;;;;;;0.60;0.60;;;;;;;;;;5054746;28;20198;-79
2023/04/08 06:36:40;;;;;;;0.60;0.60;;;;;;;;;;5073567;28;20755;-80
2023/04/08 06:39:06;;;;;;;0.70;0.70;;;;;;;;;;5075066;28;20189;-79
2023/04/08 06:41:32;;;;;;;0.63;0.63;;;;;;;;;;5069378;28;20185;-80
2023/04/08 06:43:58;;;;;;;0.60;0.60;;;;;;;;;;5070374;28;20676;-80
2023/04/08 06:46:25;;;;;;;0.80;0.80;;;;;;;;;;5069080;28;20175;-80
2023/04/08 06:48:51;;;;;;;0.60;0.60;;;;;;;;;;5065238;28;20188;-78
2023/04/08 06:51:17;;;;;;;0.70;0.70;;;;;;;;;;5067977;28;20194;-82
2023/04/08 06:53:43;;;;;;;0.60;0.60;;;;;;;;;;5068697;28;20199;-83
2023/04/08 06:56:10;;;;;;;0.50;0.50;;;;;;;;;;5065385;28;20175;-82
2023/04/08 06:58:35;;;;;;;0.57;0.57;;;;;;;;;;5067182;28;20179;-84
2023/04/08 07:01:02;;;;;;;0.80;0.80;;;;;;;;;;5082577;28;20181;-84
2023/04/08 07:03:28;;;;;;;0.60;0.60;;;;;;;;;;5085674;28;20244;-83
2023/04/08 07:05:54;;;;;;;0.60;0.60;;;;;;;;;;5086477;28;20185;-84
2023/04/08 07:08:20;;;;;;;0.63;0.63;;;;;;;;;;5086858;28;20178;-83
2023/04/08 07:10:46;;;;;;;0.67;0.67;;;;;;;;;;5085641;28;20208;-84
2023/04/08 07:13:12;;;;;;;0.70;0.70;;;;;;;;;;5085623;28;20202;-84
2023/04/08 07:15:38;;;;;;;0.60;0.60;;;;;;;;;;5085283;28;20234;-84
2023/04/08 07:18:04;;;;;;;0.70;0.70;;;;;;;;;;5083789;28;20241;-84
2023/04/08 07:20:30;;;;;;;0.60;0.60;;;;;;;;;;5083787;28;20237;-84
2023/04/08 07:22:56;;;;;;;0.53;0.53;;;;;;;;;;5083265;28;20217;-84
2023/04/08 07:25:22;;;;;;;0.60;0.60;;;;;;;;;;5083545;28;20171;-84
2023/04/08 07:27:48;;;;;;;0.70;0.70;;;;;;;;;;5080720;28;20187;-83
2023/04/08 07:30:15;;;;;;;0.70;0.70;;;;;;;;;;5083696;28;20174;-84
2023/04/08 07:32:40;;;;;;;0.70;0.70;;;;;;;;;;5082716;28;20174;-84
2023/04/08 07:35:07;;;;;;;0.60;0.60;;;;;;;;;;5083107;28;20622;-83
2023/04/08 07:37:33;;;;;;;0.70;0.70;;;;;;;;;;5083124;28;20186;-84
2023/04/08 07:39:59;;;;;;;0.60;0.60;;;;;;;;;;5082600;28;20201;-84
2023/04/08 07:42:25;;;;;;;0.60;0.60;;;;;;;;;;5082784;28;20206;-84
2023/04/08 07:44:51;;;;;;;0.60;0.60;;;;;;;;;;5083204;28;20203;-83
2023/04/08 07:47:17;;;;;;;0.50;0.50;;;;;;;;;;5083132;28;20517;-84
2023/04/08 07:49:45;;;;;;;0.70;0.70;;;;;;;;;;5084043;28;20182;-83
2023/04/08 07:52:11;;;;;;;0.60;0.60;;;;;;;;;;5082937;28;20253;-84
2023/04/08 07:54:37;;;;;;;0.63;0.63;;;;;;;;;;5082359;28;20228;-83
2023/04/08 07:57:03;;;;;;;0.60;0.60;;;;;;;;;;5081814;28;20194;-84
2023/04/08 07:59:29;;;;;;;0.60;0.60;;;;;;;;;;5079555;28;20669;-85
2023/04/08 08:01:55;;;;;;;0.80;0.80;;;;;;;;;;5077022;28;20174;-85
2023/04/08 08:04:24;;;;;;;0.70;0.70;;;;;;;;;;5076239;28;20257;-85
2023/04/08 08:06:50;;;;;;;0.60;0.60;;;;;;;;;;5076777;28;20194;-85
2023/04/08 08:09:16;;;;;;;0.60;0.60;;;;;;;;;;5077134;28;20191;-84
2023/04/08 08:11:42;;;;;;;0.70;0.70;;;;;;;;;;5076130;28;20540;-85
2023/04/08 08:14:10;;;;;;;0.60;0.60;;;;;;;;;;5074600;28;20202;-86
2023/04/08 08:16:37;;;;;;;0.60;0.60;;;;;;;;;;5075670;28;20638;-86
2023/04/08 08:19:06;;;;;;;0.53;0.53;;;;;;;;;;5075789;28;20271;-85
2023/04/08 08:21:32;;;;;;;0.70;0.70;;;;;;;;;;5075294;28;20254;-86
2023/04/08 08:23:58;;;;;;;0.60;0.60;;;;;;;;;;5074775;28;20588;-86
2023/04/08 08:26:24;;;;;;;0.50;0.50;;;;;;;;;;5076997;28;20175;-85
2023/04/08 08:28:50;;;;;;;0.70;0.70;;;;;;;;;;5075248;28;20621;-85
2023/04/08 08:31:16;;;;;;;0.60;0.60;;;;;;;;;;5075434;28;20641;-84
2023/04/08 08:33:42;;;;;;;0.63;0.63;;;;;;;;;;5079047;28;20259;-86
2023/04/08 08:36:08;;;;;;;0.60;0.60;;;;;;;;;;5078501;28;20182;-85
2023/04/08 08:38:34;;;;;;;0.70;0.70;;;;;;;;;;5079018;28;20191;-85
2023/04/08 08:41:02;;;;;;;0.60;0.60;;;;;;;;;;5059084;28;20183;-84
2023/04/08 08:43:28;;;;;;;0.70;0.70;;;;;;;;;;5064382;28;20711;-85
2023/04/08 08:45:55;;;;;;;0.60;0.60;;;;;;;;;;5060159;28;20239;-87
2023/04/08 08:48:21;;;;;;;0.70;0.70;;;;;;;;;;5062172;28;20177;-86
2023/04/08 08:50:47;;;;;;;0.70;0.70;;;;;;;;;;5058977;28;20186;-85
2023/04/08 08:53:13;;;;;;;0.77;0.77;;;;;;;;;;5058898;28;20207;-85
2023/04/08 08:55:39;;;;;;;0.60;0.60;;;;;;;;;;5059098;28;20646;-84
2023/04/08 08:58:09;;;;;;;0.60;0.60;;;;;;;;;;5057737;28;20180;-84
2023/04/08 09:00:35;;;;;;;0.50;0.50;;;;;;;;;;5060960;28;20175;-84
2023/04/08 09:03:26;;;;;;;0.50;0.50;;;;;;;;;;5078385;28;20210;-86
2023/04/08 09:05:53;;;;;;;0.40;0.40;;;;;;;;;;5068882;28;20270;-85
2023/04/08 09:08:35;;;;;;;0.50;0.50;;;;;;;;;;5072979;28;20179;-84
2023/04/08 09:11:13;;;;;;;0.47;0.47;;;;;;;;;;5069051;28;20183;-85
2023/04/08 09:13:40;;;;;;;0.50;0.50;;;;;;;;;;5060526;28;20209;-85
2023/04/08 09:16:06;;;;;;;0.50;0.50;;;;;;;;;;5062727;28;20175;-84
2023/04/08 09:18:33;;;;;;;0.60;0.60;;;;;;;;;;5059948;28;20179;-85
2023/04/08 09:21:00;;;;;;;0.50;0.50;;;;;;;;;;5065841;28;20182;-85
2023/04/08 09:23:39;;;;;;;0.50;0.50;;;;;;;;;;5090863;28;20215;-86
2023/04/08 09:26:15;;;;;;;0.50;0.50;;;;;;;;;;5098956;28;20188;-86
2023/04/08 09:28:42;;;;;;;0.50;0.50;;;;;;;;;;5071693;28;20187;-84
2023/04/08 09:31:20;;;;;;;0.50;0.50;;;;;;;;;;5064772;28;20192;-84
2023/04/08 09:33:47;;;;;;;0.50;0.50;;;;;;;;;;5077904;28;20217;-86
2023/04/08 09:36:13;;;;;;;0.50;0.50;;;;;;;;;;5076452;28;20201;-86
2023/04/08 09:38:39;;;;;;;0.40;0.40;;;;;;;;;;5057819;28;20210;-85
2023/04/08 09:41:07;;;;;;;0.60;0.60;;;;;;;;;;5065006;28;20546;-85
2023/04/08 09:43:36;;;;;;;0.30;0.30;;;;;;;;;;5067516;28;20215;-85
2023/04/08 09:46:04;;;;;;;0.40;0.40;;;;;;;;;;5060183;28;20262;-86
2023/04/08 09:48:32;;;;;;;0.30;0.30;;;;;;;;;;5076414;28;20200;-85
2023/04/08 09:50:59;;;;;;;0.40;0.40;;;;;;;;;;5063065;28;20202;-86
2023/04/08 09:53:36;;;;;;;0.50;0.50;;;;;;;;;;5076479;28;20252;-87
2023/04/08 09:56:06;;;;;;;0.37;0.37;;;;;;;;;;5067130;28;20240;-85
2023/04/08 09:58:39;;;;;;;0.30;0.30;;;;;;;;;;5075320;28;20547;-85
2023/04/08 10:01:07;;;;;;;0.37;0.37;;;;;;;;;;5067351;28;20183;-85
2023/04/08 10:03:35;;;;;;;0.40;0.40;;;;;;;;;;5059809;28;20342;-85
2023/04/08 10:06:02;;;;;;;0.50;0.50;;;;;;;;;;5064513;28;20175;-85
2023/04/08 10:08:28;;;;;;;0.40;0.40;;;;;;;;;;5062393;28;20226;-85
2023/04/08 10:10:55;;;;;;;0.30;0.30;;;;;;;;;;5064197;28;20205;-84
2023/04/08 10:13:21;;;;;;;0.40;0.40;;;;;;;;;;5068918;28;20195;-84
2023/04/08 10:15:48;;;;;;;0.40;0.40;;;;;;;;;;5071704;28;20213;-83
2023/04/08 10:18:17;;;;;;;0.30;0.30;;;;;;;;;;5076836;28;20182;-84
2023/04/08 10:20:43;;;;;;;0.37;0.37;;;;;;;;;;5056430;28;20175;-83
2023/04/08 10:23:12;;;;;;;0.40;0.40;;;;;;;;;;5070660;28;20214;-85
2023/04/08 10:25:39;;;;;;;0.40;0.40;;;;;;;;;;5077909;28;20178;-84
2023/04/08 10:28:11;;;;;;;0.40;0.40;;;;;;;;;;5077023;22;20211;-80
2023/04/08 10:30:47;;;;;;;0.40;0.40;;;;;;;;;;5060461;28;20205;-81
2023/04/08 10:33:17;;;;;;;0.43;0.43;;;;;;;;;;5070419;28;20266;-82
2023/04/08 10:35:50;;;;;;;0.40;0.40;;;;;;;;;;5059260;28;20175;-82
2023/04/08 10:38:16;;;;;;;0.40;0.40;;;;;;;;;;5055038;28;20214;-83
2023/04/08 10:40:43;;;;;;;0.40;0.40;;;;;;;;;;5058159;28;20182;-83
2023/04/08 10:43:12;;;;;;;0.40;0.40;;;;;;;;;;5057297;28;20203;-79
2023/04/08 10:45:43;;;;;;;0.50;0.50;;;;;;;;;;5063418;28;20171;-79
2023/04/08 10:48:12;;;;;;;0.50;0.50;;;;;;;;;;5060124;28;20182;-80
2023/04/08 10:50:38;;;;;;;0.50;0.50;;;;;;;;;;5060352;28;20175;-79
2023/04/08 10:53:04;;;;;;;0.40;0.40;;;;;;;;;;5064754;28;20194;-79
2023/04/08 10:55:31;;;;;;;0.50;0.50;;;;;;;;;;5062458;28;20191;-79
2023/04/08 10:58:04;;;;;;;0.50;0.50;;;;;;;;;;5055833;28;20183;-79
2023/04/08 11:00:35;;;;;;;0.60;0.60;;;;;;;;;;5047470;28;20173;-80
2023/04/08 11:03:04;;;;;;;0.70;0.70;;;;;;;;;;5039770;28;20283;-78
2023/04/08 11:05:31;;;;;;;0.50;0.50;;;;;;;;;;5054594;28;20182;-79
2023/04/08 11:07:58;;;;;;;0.70;0.70;;;;;;;;;;5055215;28;20217;-79
2023/04/08 11:10:24;;;;;;;0.67;0.67;;;;;;;;;;5044888;28;20196;-78
2023/04/08 11:12:50;;;;;;;0.60;0.60;;;;;;;;;;5028271;28;20187;-78
2023/04/08 11:15:17;;;;;;;0.67;0.67;;;;;;;;;;5041786;28;20253;-79
2023/04/08 11:17:43;;;;;;;0.50;0.50;;;;;;;;;;5046967;28;20597;-78
2023/04/08 11:20:10;;;;;;;0.60;0.60;;;;;;;;;;5049914;28;20187;-79
2023/04/08 11:22:36;;;;;;;0.60;0.60;;;;;;;;;;5041684;28;20231;-79
2023/04/08 11:25:02;;;;;;;0.70;0.70;;;;;;;;;;5027464;28;20253;-79
2023/04/08 11:27:28;;;;;;;0.77;0.77;;;;;;;;;;5027810;28;20184;-78
2023/04/08 11:29:57;;;;;;;0.60;0.60;;;;;;;;;;5024329;28;20176;-79
2023/04/08 11:32:23;;;;;;;0.60;0.60;;;;;;;;;;5030438;28;20184;-79
2023/04/08 11:34:49;;;;;;;0.70;0.70;;;;;;;;;;5027131;28;20287;-79
2023/04/08 11:37:16;;;;;;;0.60;0.60;;;;;;;;;;5024328;28;20175;-78
2023/04/08 11:39:45;;;;;;;0.50;0.50;;;;;;;;;;5046398;28;20183;-80
2023/04/08 11:42:28;;;;;;;0.60;0.60;;;;;;;;;;5040927;28;20323;-78
2023/04/08 11:44:54;;;;;;;0.60;0.60;;;;;;;;;;5023643;28;20282;-78
2023/04/08 11:47:20;;;;;;;0.60;0.60;;;;;;;;;;5054648;28;20532;-78
2023/04/08 11:49:46;;;;;;;0.60;0.60;;;;;;;;;;5053838;28;20171;-80
2023/04/08 11:52:13;;;;;;;0.50;0.50;;;;;;;;;;5053025;28;20836;-78
2023/04/08 11:54:42;;;;;;;0.57;0.57;;;;;;;;;;5055672;28;20216;-78
2023/04/08 11:57:11;;;;;;;0.50;0.50;;;;;;;;;;5075625;28;20160;-79
2023/04/08 11:59:37;;;;;;;0.60;0.60;;;;;;;;;;5075904;28;20179;-79
2023/04/08 12:02:04;;;;;;;0.60;0.60;;;;;;;;;;5076455;28;20221;-79
2023/04/08 12:04:31;;;;;;;0.50;0.50;;;;;;;;;;5074989;28;20211;-80
2023/04/08 12:06:57;;;;;;;0.63;0.63;;;;;;;;;;5067383;28;20470;-80
2023/04/08 12:09:22;;;;;;;0.57;0.57;;;;;;;;;;5058807;28;20831;-81
2023/04/08 12:11:48;;;;;;;0.60;0.60;;;;;;;;;;5058800;28;20171;-79
2023/04/08 12:14:14;;;;;;;0.60;0.60;;;;;;;;;;5058854;28;20750;-79
2023/04/08 12:16:41;;;;;;;0.67;0.67;;;;;;;;;;5058530;28;20202;-79
2023/04/08 12:19:06;;;;;;;0.60;0.60;;;;;;;;;;5059554;28;20677;-79
2023/04/08 12:21:33;;;;;;;0.60;0.60;;;;;;;;;;5058470;28;20179;-78
2023/04/08 12:23:59;;;;;;;0.60;0.60;;;;;;;;;;5058153;28;20211;-79
2023/04/08 12:26:26;;;;;;;0.70;0.70;;;;;;;;;;5058339;28;20167;-78
2023/04/08 12:28:51;;;;;;;0.57;0.57;;;;;;;;;;5058161;28;20187;-78
2023/04/08 12:31:18;;;;;;;0.50;0.50;;;;;;;;;;5034228;28;20267;-79
2023/04/08 12:33:44;;;;;;;0.50;0.50;;;;;;;;;;5037090;28;20374;-79
2023/04/08 12:36:10;;;;;;;0.50;0.50;;;;;;;;;;5039126;28;20168;-80
2023/04/08 12:38:36;;;;;;;0.67;0.67;;;;;;;;;;5038701;28;20176;-79
2023/04/08 12:41:02;;;;;;;0.60;0.60;;;;;;;;;;5039163;28;20179;-78
2023/04/08 12:43:28;;;;;;;0.50;0.50;;;;;;;;;;5037792;28;20215;-79
2023/04/08 12:45:54;;;;;;;0.50;0.50;;;;;;;;;;5038137;28;20215;-80
2023/04/08 12:48:20;;;;;;;0.60;0.60;;;;;;;;;;5038703;28;20184;-79
2023/04/08 12:50:46;;;;;;;0.60;0.60;;;;;;;;;;5038737;28;20242;-78
2023/04/08 12:53:12;;;;;;;0.63;0.63;;;;;;;;;;5037292;28;20195;-79
2023/04/08 12:55:38;;;;;;;0.60;0.60;;;;;;;;;;5038792;28;20597;-80
2023/04/08 12:58:04;;;;;;;0.50;0.50;;;;;;;;;;5038929;28;20176;-79
2023/04/08 13:00:31;;;;;;;0.57;0.57;;;;;;;;;;5039308;28;20168;-79
2023/04/08 13:02:57;;;;;;;0.70;0.70;;;;;;;;;;5034978;28;20361;-78
2023/04/08 13:05:23;;;;;;;0.60;0.60;;;;;;;;;;5026783;28;20226;-80
2023/04/08 13:07:49;;;;;;;0.70;0.70;;;;;;;;;;5037865;28;20183;-80
2023/04/08 13:10:15;;;;;;;0.60;0.60;;;;;;;;;;5023691;28;20192;-80
2023/04/08 13:12:41;;;;;;;0.57;0.57;;;;;;;;;;5021502;28;20194;-79
2023/04/08 13:15:08;;;;;;;0.60;0.60;;;;;;;;;;5030845;28;20172;-79
2023/04/08 13:17:34;;;;;;;0.50;0.50;;;;;;;;;;5038538;28;20250;-81
2023/04/08 13:20:00;;;;;;;0.63;0.63;;;;;;;;;;5038702;28;20183;-80
2023/04/08 13:22:26;;;;;;;0.70;0.70;;;;;;;;;;5054180;28;20192;-79
2023/04/08 13:24:52;;;;;;;0.73;0.73;;;;;;;;;;5051920;28;20219;-80
2023/04/08 13:27:18;;;;;;;0.50;0.50;;;;;;;;;;5038089;28;20157;-79
2023/04/08 13:29:44;;;;;;;0.50;0.50;;;;;;;;;;5038627;28;20171;-79
2023/04/08 13:32:10;;;;;;;0.60;0.60;;;;;;;;;;5034070;28;20228;-79
2023/04/08 13:34:36;;;;;;;0.60;0.60;;;;;;;;;;5016347;28;20259;-79
2023/04/08 13:37:03;;;;;;;0.60;0.60;;;;;;;;;;5018971;28;20561;-80
2023/04/08 13:39:29;;;;;;;0.60;0.60;;;;;;;;;;5024806;28;20181;-80
2023/04/08 13:41:55;;;;;;;0.67;0.67;;;;;;;;;;5022509;28;20718;-79
2023/04/08 13:44:22;;;;;;;0.70;0.70;;;;;;;;;;5020257;28;20220;-81
2023/04/08 13:46:48;;;;;;;0.60;0.60;;;;;;;;;;5019140;28;20184;-82
2023/04/08 13:49:15;;;;;;;0.70;0.70;;;;;;;;;;5018191;28;20180;-81
2023/04/08 13:51:41;;;;;;;0.50;0.50;;;;;;;;;;5017532;28;20577;-79
2023/04/08 13:54:06;;;;;;;0.63;0.63;;;;;;;;;;5014718;28;20256;-79
2023/04/08 13:56:32;;;;;;;0.57;0.57;;;;;;;;;;5017141;28;20697;-80
2023/04/08 13:58:59;;;;;;;0.70;0.70;;;;;;;;;;5015388;28;20581;-81
2023/04/08 14:01:25;;;;;;;0.70;0.70;;;;;;;;;;5015391;28;20234;-80
2023/04/08 14:03:51;;;;;;;0.70;0.70;;;;;;;;;;5015120;28;20228;-79
2023/04/08 14:06:17;;;;;;;0.60;0.60;;;;;;;;;;5015331;28;20285;-79
2023/04/08 14:08:43;;;;;;;0.60;0.60;;;;;;;;;;5027003;28;20228;-80
2023/04/08 14:11:09;;;;;;;0.70;0.70;;;;;;;;;;5016152;28;20181;-79
2023/04/08 14:13:35;;;;;;;0.60;0.60;;;;;;;;;;5019427;28;20212;-79
2023/04/08 14:16:01;;;;;;;0.60;0.60;;;;;;;;;;5032620;28;20553;-79
2023/04/08 14:18:28;;;;;;;0.60;0.60;;;;;;;;;;5031528;28;20536;-80
2023/04/08 14:20:55;;;;;;;0.70;0.70;;;;;;;;;;5021306;28;20183;-81
2023/04/08 14:23:21;;;;;;;0.60;0.60;;;;;;;;;;5045433;28;20207;-79
2023/04/08 14:25:47;;;;;;;0.70;0.70;;;;;;;;;;5050781;28;20181;-79
2023/04/08 14:28:13;;;;;;;0.70;0.70;;;;;;;;;;5056116;28;20191;-79
2023/04/08 14:30:39;;;;;;;0.60;0.60;;;;;;;;;;5057178;28;20516;-80
2023/04/08 14:33:05;;;;;;;0.60;0.60;;;;;;;;;;5055830;28;20608;-80
2023/04/08 14:35:31;;;;;;;0.50;0.50;;;;;;;;;;5056416;28;20266;-80
2023/04/08 14:37:57;;;;;;;0.70;0.70;;;;;;;;;;5055337;28;20211;-80
2023/04/08 14:40:23;;;;;;;0.60;0.60;;;;;;;;;;5056567;28;20179;-79